Time;durP1;ratioP1;P1;durP2;ratioP2;P2;SDS_P1;SDS_P2;PMS_P1;PMS_P2;Temp;Humidity;BMP_temperature;BMP_pressure;BME280_temperature;BME280_humidity;BME280_pressure;Samples;Min_cycle;Max_cycle;Signal;HPM_P1;HPM_P2
2021/01/02 00:02:30;;;;;;;9.50;6.07;;;;;;;22.78;41.05;95195.81;5034924;28;20540;-75
2021/01/02 00:05:03;;;;;;;9.27;6.13;;;;;;;22.75;40.78;95199.53;5053364;28;20040;-74
2021/01/02 00:07:52;;;;;;;9.50;6.45;;;;;;;22.70;40.90;95211.19;5034752;28;20037;-74
2021/01/02 00:10:19;;;;;;;9.68;6.50;;;;;;;22.68;41.02;95208.22;5052988;28;20048;-75
2021/01/02 00:13:13;;;;;;;8.52;5.85;;;;;;;22.64;41.03;95213.19;5052837;28;20079;-74
2021/01/02 00:16:04;;;;;;;8.13;5.65;;;;;;;22.61;41.51;95219.63;5052659;28;20029;-74
2021/01/02 00:18:49;;;;;;;9.68;6.65;;;;;;;22.60;41.06;95223.56;5035071;28;20109;-74
2021/01/02 00:21:24;;;;;;;9.38;6.28;;;;;;;22.56;41.05;95234.00;5034106;28;20059;-74
2021/01/02 00:24:13;;;;;;;10.93;6.85;;;;;;;22.55;41.07;95243.38;5052415;28;20710;-74
2021/01/02 00:26:46;;;;;;;8.40;6.07;;;;;;;22.49;41.11;95229.06;5052448;28;20032;-74
2021/01/02 00:29:18;;;;;;;10.55;6.70;;;;;;;22.41;41.31;95222.66;5034569;28;20035;-74
2021/01/02 00:31:54;;;;;;;8.30;6.03;;;;;;;22.46;40.93;95240.94;5052459;28;20115;-74
2021/01/02 00:34:35;;;;;;;9.93;6.22;;;;;;;22.43;41.21;95239.22;5052391;28;20048;-74
2021/01/02 00:37:03;;;;;;;;;;;;;;;22.42;41.32;95240.47;5052614;28;20028;-74
2021/01/02 00:39:41;;;;;;;10.27;6.50;;;;;;;22.40;41.32;95242.91;5052252;28;19916;-74
2021/01/02 00:42:06;;;;;;;10.18;7.00;;;;;;;22.38;41.40;95234.53;5052430;28;20031;-74
2021/01/02 00:44:32;;;;;;;10.32;6.88;;;;;;;22.36;41.34;95231.56;5052229;28;20025;-74
2021/01/02 00:46:58;;;;;;;9.10;6.30;;;;;;;22.33;41.33;95232.56;5017577;28;20029;-74
2021/01/02 00:49:26;;;;;;;10.20;6.65;;;;;;;22.20;41.38;95218.69;5051169;28;20143;-73
2021/01/02 00:52:02;;;;;;;10.38;6.88;;;;;;;22.31;41.24;95235.00;5034430;28;20017;-74
2021/01/02 00:54:33;;;;;;;11.00;6.88;;;;;;;22.09;41.34;95213.25;5035395;28;20021;-74
2021/01/02 00:57:02;;;;;;;9.63;6.80;;;;;;;22.27;41.51;95234.53;5033747;28;20509;-73
2021/01/02 01:00:06;;;;;;;9.90;6.25;;;;;;;22.05;41.34;95201.16;5052325;28;20021;-74
2021/01/02 01:02:49;;;;;;;10.30;6.90;;;;;;;22.22;41.53;95240.72;4995351;28;20107;-74
2021/01/02 01:05:20;;;;;;;11.68;7.22;;;;;;;22.12;41.54;95217.72;5051532;28;20087;-73
2021/01/02 01:07:45;;;;;;;10.27;6.88;;;;;;;22.20;41.41;95235.00;5017320;28;20020;-75
2021/01/02 01:10:11;;;;;;;10.70;6.82;;;;;;;22.17;41.34;95230.56;5017741;28;20024;-75
2021/01/02 01:12:41;;;;;;;9.85;6.95;;;;;;;21.79;41.49;95183.59;5052975;28;20021;-75
2021/01/02 01:15:07;;;;;;;9.98;6.50;;;;;;;22.10;41.64;95233.75;5052853;28;20048;-75
2021/01/02 01:17:32;;;;;;;10.52;6.25;;;;;;;22.13;41.59;95240.94;5036147;28;20029;-73
2021/01/02 01:19:58;;;;;;;11.25;7.45;;;;;;;22.11;41.53;95243.41;5019708;28;20036;-73
2021/01/02 01:22:25;;;;;;;9.80;6.30;;;;;;;22.10;41.57;95241.91;5036351;28;20032;-73
2021/01/02 01:24:54;;;;;;;10.57;7.03;;;;;;;22.10;41.55;95235.75;5053550;28;20033;-72
2021/01/02 01:27:54;;;;;;;9.95;7.22;;;;;;;22.07;41.54;95242.91;5050665;28;20036;-74
2021/01/02 01:30:23;;;;;;;10.18;7.05;;;;;;;22.03;41.83;95247.88;5033133;28;20028;-75
2021/01/02 01:33:08;;;;;;;10.98;7.28;;;;;;;21.90;41.68;95232.53;5032670;28;20516;-75
2021/01/02 01:35:34;;;;;;;11.90;7.40;;;;;;;21.97;41.69;95238.97;5033289;28;20021;-75
2021/01/02 01:37:59;;;;;;;10.70;6.85;;;;;;;22.01;41.61;95250.31;5016512;28;20482;-75
2021/01/02 01:40:26;;;;;;;11.48;7.55;;;;;;;22.00;41.71;95248.88;5050052;28;20063;-75
2021/01/02 01:43:02;;;;;;;10.27;7.05;;;;;;;21.98;41.96;95245.88;5050218;28;20032;-74
2021/01/02 01:45:39;;;;;;;11.93;6.93;;;;;;;21.98;41.65;95245.16;5049787;28;20102;-75
2021/01/02 01:48:06;;;;;;;10.73;6.93;;;;;;;21.96;41.66;95245.63;5049585;28;20485;-75
2021/01/02 01:50:59;;;;;;;11.05;6.97;;;;;;;21.94;41.55;95245.41;5032343;28;20074;-75
2021/01/02 01:53:27;;;;;;;10.25;6.70;;;;;;;21.93;41.66;95254.78;5049920;28;20522;-75
2021/01/02 01:55:56;;;;;;;11.50;7.25;;;;;;;21.91;41.65;95256.50;5049563;28;20075;-75
2021/01/02 01:58:36;;;;;;;10.52;6.70;;;;;;;21.91;41.46;95261.22;5049963;28;20071;-75
2021/01/02 02:01:03;;;;;;;11.23;7.32;;;;;;;21.89;41.60;95256.25;5031493;28;20017;-75
2021/01/02 02:03:28;;;;;;;10.30;6.95;;;;;;;21.82;41.66;95250.56;5049826;28;20038;-74
2021/01/02 02:06:22;;;;;;;11.27;7.07;;;;;;;21.81;41.74;95257.22;5031725;28;20490;-75
2021/01/02 02:08:57;;;;;;;11.38;7.22;;;;;;;21.80;41.69;95250.34;5024586;28;20041;-75
2021/01/02 02:11:44;;;;;;;10.57;6.75;;;;;;;21.68;41.81;95235.97;5049555;28;20032;-75
2021/01/02 02:14:14;;;;;;;11.60;7.78;;;;;;;21.77;42.03;95240.44;5049763;28;20029;-74
2021/01/02 02:16:43;;;;;;;;;;;;;;;21.79;41.75;95259.72;5050122;28;20025;-74
2021/01/02 02:19:41;;;;;;;12.63;7.73;;;;;;;21.78;42.08;95253.53;5031921;28;19920;-75
2021/01/02 02:22:13;;;;;;;10.85;7.13;;;;;;;21.62;41.86;95226.34;5015178;28;20044;-75
2021/01/02 02:24:39;;;;;;;9.85;7.00;;;;;;;21.75;41.84;95242.91;5031648;28;20107;-75
2021/01/02 02:27:04;;;;;;;11.02;7.20;;;;;;;21.67;41.95;95231.03;5047665;28;20059;-75
2021/01/02 02:29:37;;;;;;;10.27;7.22;;;;;;;21.74;41.79;95252.31;5048264;28;20037;-75
2021/01/02 02:32:06;;;;;;;11.30;7.18;;;;;;;21.73;41.79;95245.38;5048657;28;20031;-74
2021/01/02 02:34:31;;;;;;;10.65;7.25;;;;;;;21.58;41.92;95228.56;5049210;28;20024;-74
2021/01/02 02:36:57;;;;;;;10.10;7.10;;;;;;;21.68;41.85;95248.84;5047820;28;20078;-75
2021/01/02 02:39:22;;;;;;;11.20;7.28;;;;;;;21.71;41.68;95247.84;5031351;28;20028;-74
2021/01/02 02:41:52;;;;;;;10.90;7.13;;;;;;;21.68;41.85;95249.56;5030887;28;20405;-74
2021/01/02 02:44:20;;;;;;;12.50;7.55;;;;;;;21.52;41.78;95223.13;5048902;28;20029;-74
2021/01/02 02:46:46;;;;;;;11.48;6.93;;;;;;;21.54;42.08;95233.50;5047393;28;20021;-75
2021/01/02 02:49:16;;;;;;;10.23;7.40;;;;;;;21.64;41.81;95248.31;5047964;28;20029;-75
2021/01/02 02:51:43;;;;;;;11.68;7.63;;;;;;;21.65;41.92;95250.56;5049204;28;20036;-75
2021/01/02 02:54:09;;;;;;;11.50;8.00;;;;;;;21.60;41.89;95237.69;5031166;28;20041;-74
2021/01/02 02:56:34;;;;;;;11.23;7.68;;;;;;;21.59;41.86;95243.63;5047869;28;20053;-75
2021/01/02 02:59:00;;;;;;;11.40;7.78;;;;;;;21.54;41.87;95238.94;5048737;28;20032;-74
2021/01/02 03:01:27;;;;;;;11.77;7.63;;;;;;;21.60;41.86;95245.13;5049339;28;20021;-75
2021/01/02 03:03:54;;;;;;;10.73;7.70;;;;;;;21.60;41.71;95253.28;5048881;28;20029;-75
2021/01/02 03:06:21;;;;;;;11.05;7.65;;;;;;;21.23;41.70;95192.16;5048756;28;20017;-74
2021/01/02 03:08:50;;;;;;;11.38;7.90;;;;;;;21.49;41.97;95237.69;5047357;28;20029;-75
2021/01/02 03:11:16;;;;;;;10.98;7.70;;;;;;;21.55;41.82;95245.84;5031104;28;20021;-75
2021/01/02 03:13:41;;;;;;;11.50;7.70;;;;;;;21.57;41.87;95249.56;5048814;28;20536;-75
2021/01/02 03:16:07;;;;;;;11.15;7.70;;;;;;;21.57;41.78;95259.69;5052734;28;20493;-74
2021/01/02 03:18:32;;;;;;;10.98;7.70;;;;;;;21.46;42.02;95243.34;5034994;28;20017;-74
2021/01/02 03:20:58;;;;;;;10.70;7.57;;;;;;;21.55;41.80;95264.84;5052783;28;20028;-74
2021/01/02 03:23:23;;;;;;;11.77;8.15;;;;;;;21.51;41.88;95253.50;5052542;28;20028;-75
2021/01/02 03:25:49;;;;;;;12.02;8.18;;;;;;;21.38;41.98;95242.31;5052434;28;20029;-75
2021/01/02 03:28:14;;;;;;;11.15;7.80;;;;;;;21.51;41.84;95267.09;5052563;28;20040;-74
2021/01/02 03:30:40;;;;;;;11.02;8.00;;;;;;;21.51;41.90;95267.09;5035006;28;20020;-74
2021/01/02 03:33:05;;;;;;;11.40;7.47;;;;;;;21.49;41.79;95264.09;5052182;28;20044;-74
2021/01/02 03:35:32;;;;;;;10.95;8.40;;;;;;;21.49;41.97;95264.09;5052115;28;20413;-74
2021/01/02 03:37:57;;;;;;;12.30;8.48;;;;;;;21.20;41.94;95231.91;5052581;28;20051;-75
2021/01/02 03:40:23;;;;;;;13.13;8.60;;;;;;;21.47;41.90;95277.44;5034674;28;20029;-75
2021/01/02 03:42:48;;;;;;;10.95;7.57;;;;;;;21.44;42.10;95278.41;5034698;28;20028;-74
2021/01/02 03:45:17;;;;;;;11.35;7.95;;;;;;;21.43;41.88;95276.91;5050587;28;20029;-74
2021/01/02 03:47:46;;;;;;;10.95;7.60;;;;;;;21.42;41.98;95275.44;5052014;28;20025;-75
2021/01/02 03:50:11;;;;;;;11.18;7.68;;;;;;;21.44;42.01;95283.81;5052344;28;20090;-74
2021/01/02 03:52:37;;;;;;;10.68;7.32;;;;;;;21.44;41.93;95264.81;5052371;28;20490;-75
2021/01/02 03:55:05;;;;;;;11.13;7.75;;;;;;;21.51;41.88;95284.13;5052315;28;20028;-75
2021/01/02 03:57:30;;;;;;;10.20;7.60;;;;;;;21.55;41.90;95290.06;5051934;28;20017;-74
2021/01/02 03:59:56;;;;;;;11.35;8.05;;;;;;;21.36;41.85;95244.78;5051941;28;20020;-74
2021/01/02 04:02:21;;;;;;;11.85;8.02;;;;;;;21.54;41.83;95255.25;5050632;28;20025;-75
2021/01/02 04:04:46;;;;;;;10.73;7.60;;;;;;;21.34;41.54;95233.66;5050773;28;20054;-74
2021/01/02 04:07:12;;;;;;;10.75;7.78;;;;;;;21.63;41.49;95279.47;5050240;28;20071;-74
2021/01/02 04:09:37;;;;;;;12.18;8.07;;;;;;;21.72;41.58;95284.66;5051915;28;20025;-75
2021/01/02 04:12:03;;;;;;;12.60;7.93;;;;;;;21.70;41.58;95284.41;5051659;28;20021;-74
2021/01/02 04:14:28;;;;;;;10.65;7.38;;;;;;;21.74;41.61;95284.91;5051508;28;20561;-74
2021/01/02 04:16:54;;;;;;;9.93;7.90;;;;;;;21.76;41.41;95277.00;5033704;28;20025;-74
2021/01/02 04:19:19;;;;;;;12.45;8.27;;;;;;;21.61;41.46;95260.19;5033886;28;20021;-74
2021/01/02 04:21:45;;;;;;;12.30;7.75;;;;;;;21.78;41.38;95274.53;5051538;28;20033;-74
2021/01/02 04:24:11;;;;;;;11.48;7.45;;;;;;;21.66;41.08;95257.47;5050883;28;20414;-74
2021/01/02 04:26:36;;;;;;;10.63;7.55;;;;;;;21.83;41.58;95281.97;5050318;28;20489;-74
2021/01/02 04:29:03;;;;;;;11.25;7.93;;;;;;;21.77;41.20;95275.78;5051404;28;20490;-74
2021/01/02 04:31:47;;;;;;;10.25;7.10;;;;;;;21.83;41.17;95281.97;5051337;28;20500;-75
2021/01/02 04:34:13;;;;;;;11.05;7.90;;;;;;;21.87;41.30;95294.09;5033590;28;20079;-75
2021/01/02 04:36:38;;;;;;;11.77;7.72;;;;;;;21.90;41.13;95292.34;5051373;28;20064;-74
2021/01/02 04:39:04;;;;;;;9.13;7.00;;;;;;;21.91;41.17;95299.28;5051249;28;20029;-74
2021/01/02 04:41:30;;;;;;;11.07;8.15;;;;;;;21.91;41.09;95302.72;5051205;28;20461;-75
2021/01/02 04:43:56;;;;;;;10.18;7.60;;;;;;;21.85;41.04;95295.81;5051142;28;20108;-75
2021/01/02 04:46:22;;;;;;;10.80;7.78;;;;;;;21.83;40.88;95293.56;5033419;28;20029;-75
2021/01/02 04:48:50;;;;;;;10.82;7.32;;;;;;;21.89;40.88;95301.75;5051159;28;20414;-74
2021/01/02 04:51:17;;;;;;;10.35;7.13;;;;;;;21.94;40.83;95316.09;5051193;28;20417;-73
2021/01/02 04:53:42;;;;;;;10.82;7.50;;;;;;;21.96;41.14;95313.63;5050778;28;20032;-74
2021/01/02 04:56:08;;;;;;;9.88;7.07;;;;;;;21.93;40.79;95314.59;5050963;28;20420;-74
2021/01/02 04:58:40;;;;;;;10.23;7.05;;;;;;;21.96;40.82;95329.19;5049581;28;20021;-75
2021/01/02 05:01:05;;;;;;;10.65;7.22;;;;;;;21.98;40.96;95326.72;5050515;28;20123;-74
2021/01/02 05:03:35;;;;;;;11.32;7.70;;;;;;;21.94;40.70;95332.41;5032795;28;20064;-75
2021/01/02 05:06:01;;;;;;;10.53;7.47;;;;;;;21.81;40.79;95311.59;5050668;28;20033;-74
2021/01/02 05:08:27;;;;;;;10.45;7.47;;;;;;;21.90;40.65;95324.97;5050246;28;20302;-74
2021/01/02 05:11:05;;;;;;;10.98;7.63;;;;;;;21.94;40.76;95335.13;5050780;28;20020;-75
2021/01/02 05:13:35;;;;;;;10.50;7.30;;;;;;;22.01;40.74;95348.22;5049465;28;20028;-74
2021/01/02 05:16:27;;;;;;;10.75;7.53;;;;;;;21.88;40.54;95328.19;5049363;28;20486;-74
2021/01/02 05:18:59;;;;;;;11.15;7.25;;;;;;;22.02;40.65;95341.56;5050310;28;20087;-74
2021/01/02 05:21:28;;;;;;;10.00;7.20;;;;;;;22.02;40.62;95341.56;5032529;28;20032;-74
2021/01/02 05:24:04;;;;;;;8.90;7.00;;;;;;;22.00;40.59;95344.03;5032653;28;20032;-74
2021/01/02 05:26:30;;;;;;;10.95;7.97;;;;;;;22.00;40.65;95346.75;5050155;28;20021;-75
2021/01/02 05:29:08;;;;;;;10.93;7.70;;;;;;;22.01;40.40;95348.22;5049269;28;20044;-74
2021/01/02 05:31:36;;;;;;;10.75;7.30;;;;;;;22.00;40.71;95351.44;5050316;28;20472;-75
2021/01/02 05:34:05;;;;;;;10.25;7.63;;;;;;;22.03;40.68;95356.66;5049780;28;20122;-74
2021/01/02 05:36:31;;;;;;;10.20;7.30;;;;;;;21.83;40.51;95325.47;5048323;28;20035;-75
2021/01/02 05:38:58;;;;;;;10.77;7.82;;;;;;;22.05;40.74;95354.19;5012326;28;20029;-74
2021/01/02 05:41:23;;;;;;;10.40;7.10;;;;;;;22.00;40.63;95351.44;5030390;28;20506;-73
2021/01/02 05:43:49;;;;;;;10.90;7.35;;;;;;;22.05;40.40;95365.06;4996731;28;20033;-75
2021/01/02 05:46:14;;;;;;;11.10;7.68;;;;;;;21.94;40.57;95342.53;5030347;28;20033;-75
2021/01/02 05:48:40;;;;;;;10.15;7.57;;;;;;;21.99;40.55;95356.13;5035709;28;20107;-74
2021/01/02 05:51:05;;;;;;;11.00;7.40;;;;;;;22.02;40.29;95365.31;5050298;28;20459;-74
2021/01/02 05:53:35;;;;;;;10.60;7.72;;;;;;;22.06;40.40;95371.97;5048559;28;20029;-80
2021/01/02 05:56:12;;;;;;;10.70;7.78;;;;;;;22.08;40.42;95376.94;5049984;28;20049;-80
2021/01/02 05:58:41;;;;;;;10.43;7.53;;;;;;;22.11;40.51;95373.22;5049761;28;20038;-74
2021/01/02 06:01:09;;;;;;;10.50;7.53;;;;;;;22.13;40.29;95382.38;5032387;28;20510;-76
2021/01/02 06:03:35;;;;;;;11.38;7.40;;;;;;;22.14;40.36;95378.41;5032221;28;20048;-73
2021/01/02 06:06:06;;;;;;;10.15;7.18;;;;;;;22.13;40.19;95363.31;5051182;28;20021;-78
2021/01/02 06:08:33;;;;;;;10.93;7.60;;;;;;;22.14;40.24;95381.13;5051474;28;20657;-75
2021/01/02 06:11:01;;;;;;;10.90;7.82;;;;;;;22.18;40.18;95384.38;5032553;28;20028;-70
2021/01/02 06:13:31;;;;;;;10.80;8.00;;;;;;;22.17;40.16;95388.31;5049518;28;20025;-68
2021/01/02 06:15:57;;;;;;;11.18;7.80;;;;;;;22.19;40.12;95396.72;5048181;28;20516;-69
2021/01/02 06:18:22;;;;;;;9.88;7.45;;;;;;;22.20;39.90;95390.06;5049344;28;20021;-69
2021/01/02 06:20:48;;;;;;;11.77;7.90;;;;;;;22.20;40.01;95402.91;5049236;28;20028;-70
2021/01/02 06:23:14;;;;;;;11.18;7.75;;;;;;;22.20;40.22;95392.78;5031453;28;20025;-69
2021/01/02 06:25:39;;;;;;;10.75;7.80;;;;;;;22.20;40.09;95392.78;5031384;28;20033;-72
2021/01/02 06:28:05;;;;;;;11.35;7.68;;;;;;;21.87;40.08;95344.97;5031127;28;20031;-72
2021/01/02 06:30:30;;;;;;;12.13;8.20;;;;;;;22.23;40.04;95397.25;5048315;28;20024;-73
2021/01/02 06:32:56;;;;;;;10.77;7.70;;;;;;;22.05;40.01;95375.94;5049797;28;20041;-75
2021/01/02 06:35:22;;;;;;;11.30;7.95;;;;;;;22.23;39.91;95408.13;5048711;28;20021;-74
2021/01/02 06:37:47;;;;;;;12.15;8.18;;;;;;;22.23;40.04;95397.25;5049599;28;20100;-74
2021/01/02 06:40:19;;;;;;;10.77;7.68;;;;;;;22.23;39.82;95397.25;5050319;28;20467;-74
2021/01/02 06:43:00;;;;;;;10.73;7.78;;;;;;;22.24;39.79;95404.19;5049682;28;20064;-73
2021/01/02 06:45:46;;;;;;;11.18;7.50;;;;;;;22.26;39.86;95411.88;5048487;28;20029;-71
2021/01/02 06:48:17;;;;;;;12.20;7.93;;;;;;;22.26;39.80;95407.16;5049041;28;20059;-71
2021/01/02 06:50:46;;;;;;;12.02;8.40;;;;;;;22.26;39.76;95407.16;5049080;28;20098;-71
2021/01/02 06:53:23;;;;;;;11.93;8.23;;;;;;;22.27;39.63;95414.09;5049205;28;20079;-73
2021/01/02 06:56:08;;;;;;;11.85;8.43;;;;;;;22.23;39.70;95402.69;5048865;28;20032;-72
2021/01/02 06:58:38;;;;;;;10.48;7.50;;;;;;;22.21;39.78;95399.75;5048676;28;20017;-73
2021/01/02 07:01:07;;;;;;;11.90;8.02;;;;;;;22.12;39.74;95391.78;5047799;28;20056;-73
2021/01/02 07:03:39;;;;;;;11.85;8.50;;;;;;;22.29;39.68;95411.63;5048023;28;20032;-73
2021/01/02 07:06:23;;;;;;;10.85;8.02;;;;;;;22.31;39.58;95425.47;5048904;28;20021;-74
2021/01/02 07:08:59;;;;;;;11.18;8.27;;;;;;;22.32;39.57;95421.50;5048460;28;20020;-71
2021/01/02 07:11:40;;;;;;;10.18;7.65;;;;;;;22.17;39.69;95399.19;5047872;28;20032;-70
2021/01/02 07:14:15;;;;;;;11.10;8.15;;;;;;;22.32;39.51;95421.50;5047740;28;20040;-70
2021/01/02 07:16:50;;;;;;;12.20;8.38;;;;;;;22.33;39.27;95423.00;5048662;28;20489;-71
2021/01/02 07:19:31;;;;;;;11.25;8.13;;;;;;;22.34;39.67;95424.47;5048462;28;20502;-70
2021/01/02 07:21:56;;;;;;;;;;;;;;;22.35;39.54;95431.41;5049796;28;20416;-75
2021/01/02 07:24:58;;;;;;;12.63;8.27;;;;;;;22.37;39.73;95428.94;5049086;28;19909;-74
2021/01/02 07:27:30;;;;;;;10.50;7.68;;;;;;;22.40;39.80;95429.94;4987222;28;20136;-72
2021/01/02 07:30:11;;;;;;;12.05;8.68;;;;;;;22.40;39.98;95438.84;5047786;28;20071;-71
2021/01/02 07:32:41;;;;;;;11.65;8.23;;;;;;;22.40;40.00;95433.41;5037417;28;20052;-73
2021/01/02 07:35:10;;;;;;;;;;;;;;;22.43;39.74;95432.41;5012056;28;20033;-77
2021/01/02 07:37:40;;;;;;;10.75;7.55;;;;;;;22.46;39.62;95431.44;5050351;28;20301;-77
2021/01/02 07:40:07;;;;;;;11.90;8.43;;;;;;;22.36;39.78;95411.16;5042303;28;20395;-71
2021/01/02 07:42:37;;;;;;;10.13;7.60;;;;;;;22.51;39.54;95433.41;5049307;28;20365;-75
2021/01/02 07:45:13;;;;;;;11.10;8.23;;;;;;;22.55;39.72;95440.09;5049464;28;20776;-72
2021/01/02 07:47:47;;;;;;;12.25;8.27;;;;;;;22.54;39.65;95421.53;5047568;28;20087;-74
2021/01/02 07:50:15;;;;;;;12.20;8.30;;;;;;;22.58;39.54;95422.03;5031203;28;20146;-78
2021/01/02 07:52:53;;;;;;;11.68;8.35;;;;;;;22.58;39.57;95422.03;5048973;28;20033;-75
2021/01/02 07:55:34;;;;;;;11.52;8.65;;;;;;;22.65;39.71;95416.84;5037027;28;20037;-72
2021/01/02 07:58:00;;;;;;;11.32;8.05;;;;;;;22.66;39.67;95404.72;5026144;28;20021;-74
2021/01/02 08:00:25;;;;;;;10.52;8.07;;;;;;;22.58;39.62;95390.09;5032783;28;20505;-75
2021/01/02 08:02:51;;;;;;;11.75;8.18;;;;;;;22.71;39.31;95405.97;5034282;28;20108;-80
2021/01/02 08:05:20;;;;;;;12.85;9.05;;;;;;;22.86;39.41;95415.38;5034817;28;20029;-73
2021/01/02 08:07:56;;;;;;;10.48;7.57;;;;;;;22.99;39.16;95427.28;5051468;28;20102;-71
2021/01/02 08:10:21;;;;;;;13.20;8.57;;;;;;;23.08;39.30;95416.13;5051387;28;20033;-72
2021/01/02 08:12:48;;;;;;;11.50;8.55;;;;;;;23.21;38.91;95423.78;5052934;28;20551;-73
2021/01/02 08:15:17;;;;;;;12.73;7.90;;;;;;;23.17;39.19;95402.22;5052686;28;20039;-72
2021/01/02 08:17:43;;;;;;;10.50;7.93;;;;;;;23.43;38.44;95429.91;5051442;28;20242;-71
2021/01/02 08:20:09;;;;;;;11.32;7.97;;;;;;;23.47;38.43;95414.06;5051281;28;20561;-71
2021/01/02 08:22:36;;;;;;;10.75;7.95;;;;;;;23.64;38.51;95422.94;5052660;28;20096;-73
2021/01/02 08:25:08;;;;;;;10.60;7.93;;;;;;;23.75;37.99;95422.91;5051502;28;20017;-72
2021/01/02 08:27:34;;;;;;;11.20;8.88;;;;;;;23.82;38.04;95422.41;5034588;28;20112;-73
2021/01/02 08:30:03;;;;;;;11.00;8.30;;;;;;;23.89;37.94;95412.44;5034921;28;20032;-81
2021/01/02 08:32:29;;;;;;;11.47;8.00;;;;;;;24.07;37.39;95416.56;5032185;28;20533;-76
2021/01/02 08:34:54;;;;;;;11.10;8.05;;;;;;;24.17;37.24;95404.09;5034121;28;20262;-80
2021/01/02 08:37:20;;;;;;;12.07;8.13;;;;;;;24.26;37.10;95401.84;5033167;28;20026;-76
2021/01/02 08:39:45;;;;;;;12.43;8.27;;;;;;;24.35;36.87;95398.81;5031482;28;20132;-84
2021/01/02 08:42:11;;;;;;;11.68;8.27;;;;;;;24.18;36.70;95368.13;5048688;28;20021;-77
2021/01/02 08:44:46;;;;;;;11.52;8.40;;;;;;;24.54;36.41;95410.59;5046684;28;20043;-72
2021/01/02 08:47:22;;;;;;;9.65;8.10;;;;;;;24.65;36.79;95410.50;5030107;28;20033;-71
2021/01/02 08:49:48;;;;;;;12.15;8.25;;;;;;;24.71;36.33;95403.78;5039353;28;20025;-71
2021/01/02 08:52:26;;;;;;;11.50;8.02;;;;;;;24.80;36.55;95405.44;5043060;28;20030;-82
2021/01/02 08:54:54;;;;;;;11.15;7.95;;;;;;;24.87;36.11;95402.88;5049605;28;20035;-72
2021/01/02 08:57:29;;;;;;;12.18;8.73;;;;;;;24.93;36.26;95390.69;5032647;28;20695;-70
2021/01/02 09:00:24;;;;;;;9.48;7.38;;;;;;;25.05;36.05;95394.06;5029117;28;20037;-74
2021/01/02 09:02:56;;;;;;;10.50;7.40;;;;;;;25.09;36.19;95395.25;5020498;28;20552;-73
2021/01/02 09:05:29;;;;;;;10.73;7.50;;;;;;;25.11;35.82;95392.78;5028363;28;20033;-75
2021/01/02 09:08:06;;;;;;;10.15;7.57;;;;;;;25.21;35.67;95396.63;5030745;28;20057;-75
2021/01/02 09:10:33;;;;;;;11.65;7.72;;;;;;;24.97;35.75;95350.13;5030562;28;20026;-74
2021/01/02 09:13:06;;;;;;;10.60;7.78;;;;;;;25.33;35.28;95393.31;5046782;28;20110;-72
2021/01/02 09:15:45;;;;;;;11.15;7.70;;;;;;;25.40;35.28;95397.44;5030503;28;20112;-74
2021/01/02 09:18:30;;;;;;;12.27;8.23;;;;;;;25.46;35.33;95395.41;5029184;28;20104;-75
2021/01/02 09:20:57;;;;;;;11.40;8.02;;;;;;;25.50;35.24;95396.59;5024022;28;20103;-71
2021/01/02 09:23:31;;;;;;;12.35;7.85;;;;;;;25.58;35.21;95391.28;5029856;28;20045;-71
2021/01/02 09:25:57;;;;;;;11.45;7.45;;;;;;;25.56;35.26;95382.84;5027579;28;20025;-74
2021/01/02 09:28:22;;;;;;;13.48;8.40;;;;;;;25.59;35.46;95381.81;5030430;28;20029;-74
2021/01/02 09:30:48;;;;;;;13.43;7.97;;;;;;;25.68;35.24;95378.75;5028429;28;20025;-74
2021/01/02 09:33:14;;;;;;;13.00;7.43;;;;;;;25.70;35.17;95381.72;5042143;28;20885;-74
2021/01/02 09:35:40;;;;;;;14.73;7.55;;;;;;;25.71;35.21;95377.72;5050116;28;20056;-74
2021/01/02 09:38:05;;;;;;;10.95;7.18;;;;;;;25.70;35.49;95373.53;5050154;28;20013;-75
2021/01/02 09:40:32;;;;;;;11.90;7.82;;;;;;;25.57;35.52;95360.44;5050705;28;20525;-75
2021/01/02 09:42:58;;;;;;;11.13;7.70;;;;;;;25.69;36.64;95380.25;5050874;28;20095;-74
2021/01/02 09:45:23;;;;;;;10.10;7.18;;;;;;;25.65;36.04;95371.56;5051386;28;20444;-74
2021/01/02 09:47:49;;;;;;;11.02;7.20;;;;;;;25.56;36.52;95358.22;5050637;28;20029;-74
2021/01/02 09:50:14;;;;;;;10.13;6.90;;;;;;;25.57;40.24;95365.91;5042834;28;20159;-74
2021/01/02 09:52:40;;;;;;;11.82;8.18;;;;;;;25.51;37.57;95367.25;5050290;28;20039;-74
2021/01/02 09:55:06;;;;;;;10.50;6.95;;;;;;;25.43;36.45;95363.63;5049537;28;20025;-74
2021/01/02 09:57:31;;;;;;;10.30;7.15;;;;;;;25.34;36.29;95366.69;5050506;28;20025;-75
2021/01/02 09:59:57;;;;;;;10.68;6.72;;;;;;;25.27;36.07;95356.31;5046623;28;20379;-74
2021/01/02 10:02:22;;;;;;;10.50;7.00;;;;;;;25.18;36.25;95356.66;5040921;28;20024;-74
2021/01/02 10:04:48;;;;;;;10.73;6.93;;;;;;;25.16;36.43;95356.44;5032535;28;20025;-74
2021/01/02 10:07:14;;;;;;;11.25;6.97;;;;;;;25.11;36.70;95338.13;5050500;28;20025;-75
2021/01/02 10:09:41;;;;;;;11.60;7.00;;;;;;;25.09;36.49;95340.59;5050033;28;20029;-74
2021/01/02 10:12:07;;;;;;;11.80;7.15;;;;;;;25.03;36.83;95326.25;5049756;28;20025;-74
2021/01/02 10:14:32;;;;;;;8.82;6.57;;;;;;;24.81;37.45;95303.13;5049776;28;20051;-75
2021/01/02 10:17:11;;;;;;;8.82;6.50;;;;;;;24.98;39.78;95318.84;5066549;28;20353;-73
2021/01/02 10:19:44;;;;;;;9.77;6.55;;;;;;;24.73;37.99;95291.28;5067069;28;20513;-74
2021/01/02 10:22:09;;;;;;;9.15;7.18;;;;;;;24.94;40.56;95323.09;5064934;28;20020;-74
2021/01/02 10:24:35;;;;;;;9.98;6.53;;;;;;;24.90;37.69;95322.63;5066989;28;20063;-74
2021/01/02 10:27:00;;;;;;;10.63;6.25;;;;;;;24.83;38.07;95313.03;5067065;28;20021;-74
2021/01/02 10:29:26;;;;;;;9.25;6.50;;;;;;;24.79;37.83;95314.56;5066055;28;20044;-74
2021/01/02 10:31:52;;;;;;;9.75;6.75;;;;;;;24.80;37.09;95312.56;5066460;28;20036;-74
2021/01/02 10:34:17;;;;;;;9.80;7.13;;;;;;;24.76;37.01;95312.13;5066714;28;20039;-74
2021/01/02 10:36:46;;;;;;;9.13;6.43;;;;;;;24.73;37.06;95305.66;5066080;28;20017;-74
2021/01/02 10:39:12;;;;;;;8.80;6.25;;;;;;;24.71;37.27;95299.22;5066921;28;20033;-74
2021/01/02 10:41:38;;;;;;;8.55;6.22;;;;;;;24.50;37.47;95273.63;5066391;28;20025;-74
2021/01/02 10:44:03;;;;;;;9.00;6.40;;;;;;;24.64;37.16;95294.34;5065271;28;20063;-74
2021/01/02 10:46:29;;;;;;;9.38;6.35;;;;;;;24.61;37.00;95284.44;5066211;28;20043;-74
2021/01/02 10:48:54;;;;;;;8.65;6.35;;;;;;;24.52;37.04;95276.59;5066937;28;20094;-74
2021/01/02 10:51:20;;;;;;;9.52;6.57;;;;;;;24.39;37.16;95247.16;5066641;28;20082;-74
2021/01/02 10:53:45;;;;;;;9.05;6.20;;;;;;;24.64;37.11;95283.41;5065467;28;20024;-74
2021/01/02 10:56:12;;;;;;;8.95;6.45;;;;;;;24.49;37.37;95255.75;5066040;28;20028;-73
2021/01/02 10:58:37;;;;;;;8.60;6.22;;;;;;;24.66;36.99;95272.72;5065186;28;20111;-74
2021/01/02 11:01:04;;;;;;;8.02;6.53;;;;;;;24.62;37.35;95270.28;5064871;28;20188;-73
2021/01/02 11:03:30;;;;;;;10.10;6.53;;;;;;;24.61;36.79;95268.06;5065834;28;20035;-74
2021/01/02 11:05:57;;;;;;;10.00;6.70;;;;;;;24.61;36.96;95262.59;5065910;28;20027;-74
2021/01/02 11:08:22;;;;;;;7.30;5.90;;;;;;;24.57;37.35;95256.66;5066437;28;20033;-74
2021/01/02 11:10:48;;;;;;;9.65;6.30;;;;;;;24.57;36.70;95251.22;5066041;28;20099;-74
2021/01/02 11:13:13;;;;;;;9.35;6.15;;;;;;;24.60;36.84;95261.09;5065084;28;20048;-74
2021/01/02 11:15:39;;;;;;;7.55;5.50;;;;;;;24.44;36.59;95237.44;5065662;28;20071;-75
2021/01/02 11:18:04;;;;;;;8.07;6.20;;;;;;;24.59;37.09;95262.38;5065856;28;20021;-75
2021/01/02 11:20:30;;;;;;;8.13;6.32;;;;;;;24.54;37.07;95249.50;5065843;28;20032;-74
2021/01/02 11:22:55;;;;;;;9.43;6.45;;;;;;;24.36;37.00;95220.13;5065485;28;20023;-75
2021/01/02 11:25:21;;;;;;;8.02;5.63;;;;;;;24.57;36.89;95251.22;5064863;28;20032;-75
2021/01/02 11:27:47;;;;;;;9.00;6.13;;;;;;;24.57;36.75;95243.00;5056404;28;20036;-75
2021/01/02 11:30:13;;;;;;;8.38;5.50;;;;;;;24.59;37.30;95243.25;5052876;28;20033;-75
2021/01/02 11:32:38;;;;;;;7.57;5.57;;;;;;;24.47;37.18;95220.03;5051020;28;20032;-75
2021/01/02 11:35:04;;;;;;;8.70;6.10;;;;;;;24.58;36.88;95241.78;5050151;28;20475;-75
2021/01/02 11:37:29;;;;;;;9.05;5.95;;;;;;;24.53;36.62;95224.19;5052302;28;20090;-74
2021/01/02 11:39:55;;;;;;;7.82;5.40;;;;;;;24.61;36.98;95235.28;5052375;28;20032;-75
2021/01/02 11:42:20;;;;;;;7.82;5.53;;;;;;;24.53;36.58;95228.94;5051792;28;20395;-74